createdAt,value
2019-05-01T00:00:39.832Z,0.00
2019-05-01T00:01:39.818Z,0.00
2019-05-01T00:02:39.813Z,0.00
2019-05-01T00:03:39.812Z,0.00
2019-05-01T00:04:39.808Z,0.00
2019-05-01T00:05:39.804Z,0.00
2019-05-01T00:06:39.803Z,0.00
2019-05-01T00:07:39.795Z,0.00
2019-05-01T00:08:39.788Z,0.00
2019-05-01T00:09:39.794Z,0.00
2019-05-01T00:10:39.790Z,0.00
2019-05-01T00:11:39.778Z,0.00
2019-05-01T00:12:39.776Z,0.00
2019-05-01T00:13:39.769Z,0.00
2019-05-01T00:14:39.768Z,0.00
2019-05-01T00:15:39.761Z,0.00
2019-05-01T00:16:39.755Z,0.00
2019-05-01T00:17:39.756Z,0.00
2019-05-01T00:18:39.750Z,0.00
2019-05-01T00:19:39.747Z,0.00
2019-05-01T00:20:39.739Z,0.00
2019-05-01T00:21:39.738Z,0.00
2019-05-01T00:22:39.733Z,0.00
2019-05-01T00:23:39.729Z,0.00
2019-05-01T00:24:39.724Z,0.00
2019-05-01T00:25:39.718Z,0.00
2019-05-01T00:26:39.714Z,0.00
2019-05-01T00:27:39.716Z,0.00
2019-05-01T00:28:39.710Z,0.00
2019-05-01T00:29:39.709Z,0.00
2019-05-01T00:30:39.699Z,0.00
2019-05-01T00:31:39.697Z,0.00
2019-05-01T00:32:39.684Z,0.00
2019-05-01T00:33:39.684Z,0.00
2019-05-01T00:34:39.687Z,0.00
2019-05-01T00:35:39.680Z,0.00
2019-05-01T00:36:39.677Z,0.00
2019-05-01T00:37:39.670Z,0.00
2019-05-01T00:38:39.668Z,0.00
2019-05-01T00:39:39.661Z,0.00
2019-05-01T00:40:39.658Z,0.00
2019-05-01T00:41:39.653Z,0.00
2019-05-01T00:42:39.651Z,0.00
2019-05-01T00:43:39.649Z,0.00
2019-05-01T00:44:39.643Z,0.00
2019-05-01T00:45:39.645Z,0.00
2019-05-01T00:46:39.633Z,0.00
2019-05-01T00:47:39.633Z,0.00
2019-05-01T00:48:39.626Z,0.00
2019-05-01T00:49:39.622Z,0.00
2019-05-01T00:50:39.617Z,0.00
2019-05-01T00:51:39.613Z,0.00
2019-05-01T00:52:39.612Z,0.00
2019-05-01T00:53:39.603Z,0.00
2019-05-01T00:54:39.604Z,0.00
2019-05-01T00:55:39.597Z,0.00
2019-05-01T00:56:39.599Z,0.00
2019-05-01T00:57:39.588Z,0.00
2019-05-01T00:58:39.582Z,0.00
2019-05-01T00:59:39.581Z,0.00
2019-05-01T01:00:43.147Z,0.00
2019-05-01T01:01:39.573Z,0.00
2019-05-01T01:02:39.575Z,0.00
2019-05-01T01:03:39.565Z,0.00
2019-05-01T01:04:39.561Z,0.00
2019-05-01T01:05:39.558Z,0.00
2019-05-01T01:06:39.560Z,0.00
2019-05-01T01:07:39.552Z,0.00
2019-05-01T01:08:39.546Z,0.00
2019-05-01T01:09:39.553Z,0.00
2019-05-01T01:10:39.546Z,0.00
2019-05-01T01:11:39.532Z,0.00
2019-05-01T01:12:39.520Z,0.00
2019-05-01T01:13:41.270Z,0.00
2019-05-01T01:14:39.514Z,0.00
2019-05-01T01:15:39.516Z,0.00
2019-05-01T01:16:39.510Z,0.00
2019-05-01T01:17:40.198Z,0.00
2019-05-01T01:18:39.507Z,0.00
2019-05-01T01:19:39.506Z,0.00
2019-05-01T01:20:39.504Z,0.00
2019-05-01T01:21:39.501Z,0.00
2019-05-01T01:22:39.510Z,0.00
2019-05-01T01:23:39.486Z,0.00
2019-05-01T01:24:39.480Z,0.00
2019-05-01T01:25:39.481Z,0.00
2019-05-01T01:26:39.471Z,0.00
2019-05-01T01:27:39.478Z,0.00
2019-05-01T01:28:39.462Z,0.00
2019-05-01T01:29:39.457Z,0.00
2019-05-01T01:30:39.454Z,0.00
2019-05-01T01:31:39.452Z,0.00
2019-05-01T01:32:41.264Z,0.00
2019-05-01T01:33:39.444Z,0.00
2019-05-01T01:34:39.441Z,0.00
2019-05-01T01:35:39.436Z,0.00
2019-05-01T01:36:39.432Z,0.00
2019-05-01T01:37:39.427Z,0.00
2019-05-01T01:38:39.428Z,0.00
2019-05-01T01:39:39.420Z,0.00
2019-05-01T01:40:39.415Z,0.00
2019-05-01T01:41:39.412Z,0.00
2019-05-01T01:42:39.410Z,0.00
2019-05-01T01:43:39.405Z,0.00
2019-05-01T01:44:39.405Z,0.00
2019-05-01T01:45:39.409Z,0.00
2019-05-01T01:46:39.392Z,0.00
2019-05-01T01:47:39.387Z,0.00
2019-05-01T01:48:39.383Z,0.00
2019-05-01T01:49:39.380Z,0.00
2019-05-01T01:50:39.375Z,0.00
2019-05-01T01:51:39.372Z,0.00
2019-05-01T01:52:39.370Z,0.00
2019-05-01T01:53:39.362Z,0.00
2019-05-01T01:54:39.360Z,0.00
2019-05-01T01:55:39.351Z,0.00
2019-05-01T01:56:39.357Z,0.00
2019-05-01T01:57:39.347Z,0.00
2019-05-01T01:58:39.341Z,0.00
2019-05-01T01:59:39.341Z,0.00
2019-05-01T02:00:39.333Z,0.00
2019-05-01T02:01:39.336Z,0.00
2019-05-01T02:02:39.325Z,0.00
2019-05-01T02:03:39.323Z,0.00
2019-05-01T02:04:39.316Z,0.00
2019-05-01T02:05:39.314Z,0.00
2019-05-01T02:06:39.311Z,0.00
2019-05-01T02:07:39.306Z,0.00
2019-05-01T02:08:39.313Z,0.00
2019-05-01T02:09:39.298Z,0.00
2019-05-01T02:10:42.887Z,0.00
2019-05-01T02:11:39.290Z,0.00
2019-05-01T02:12:39.285Z,0.00
2019-05-01T02:13:39.281Z,0.00
2019-05-01T02:14:39.282Z,0.00
2019-05-01T02:15:39.273Z,0.00
2019-05-01T02:16:39.270Z,0.00
2019-05-01T02:17:39.265Z,0.00
2019-05-01T02:18:39.267Z,0.00
2019-05-01T02:19:39.259Z,0.00
2019-05-01T02:20:39.253Z,0.00
2019-05-01T02:21:39.251Z,0.00
2019-05-01T02:22:39.248Z,0.00
2019-05-01T02:23:39.243Z,0.00
2019-05-01T02:24:39.238Z,0.00
2019-05-01T02:25:39.232Z,0.00
2019-05-01T02:26:39.231Z,0.00
2019-05-01T02:27:39.227Z,0.00
2019-05-01T02:28:39.240Z,0.00
2019-05-01T02:29:39.218Z,0.00
2019-05-01T02:30:39.213Z,0.00
2019-05-01T02:31:39.211Z,0.00
2019-05-01T02:32:39.206Z,0.00
2019-05-01T02:33:39.199Z,0.00
2019-05-01T02:34:39.193Z,0.00
2019-05-01T02:35:39.195Z,0.00
2019-05-01T02:36:39.186Z,0.00
2019-05-01T02:37:39.183Z,0.00
2019-05-01T02:38:39.178Z,0.00
2019-05-01T02:39:39.175Z,0.00
2019-05-01T02:40:39.169Z,0.00
2019-05-01T02:41:41.470Z,0.00
2019-05-01T02:42:39.161Z,0.00
2019-05-01T02:43:39.161Z,0.00
2019-05-01T02:44:39.154Z,0.00
2019-05-01T02:45:39.149Z,0.00
2019-05-01T02:46:39.143Z,0.00
2019-05-01T02:47:39.141Z,0.00
2019-05-01T02:48:39.136Z,0.00
2019-05-01T02:49:39.130Z,0.00
2019-05-01T02:50:39.128Z,0.00
2019-05-01T02:51:39.121Z,0.00
2019-05-01T02:52:39.119Z,0.00
2019-05-01T02:53:39.124Z,0.00
2019-05-01T02:54:39.111Z,0.00
2019-05-01T02:55:39.107Z,0.00
2019-05-01T02:56:39.102Z,0.00
2019-05-01T02:57:39.096Z,0.00
2019-05-01T02:58:39.095Z,0.00
2019-05-01T02:59:39.102Z,0.00
2019-05-01T03:00:39.085Z,0.00
2019-05-01T03:01:47.234Z,0.00
2019-05-01T03:02:39.075Z,0.00
2019-05-01T03:03:39.071Z,0.00
2019-05-01T03:04:39.076Z,0.00
2019-05-01T03:05:39.062Z,0.00
2019-05-01T03:06:39.060Z,0.00
2019-05-01T03:07:39.056Z,0.00
2019-05-01T03:08:39.124Z,4.00
2019-05-01T03:09:39.046Z,4.00
2019-05-01T03:10:39.045Z,4.00
2019-05-01T03:11:39.035Z,0.00
2019-05-01T03:12:39.036Z,0.00
2019-05-01T03:13:39.025Z,4.00
2019-05-01T03:14:39.026Z,0.00
2019-05-01T03:15:39.018Z,4.00
2019-05-01T03:16:39.015Z,8.00
2019-05-01T03:17:39.014Z,8.00
2019-05-01T03:18:39.007Z,8.00
2019-05-01T03:19:39.002Z,8.00
2019-05-01T03:20:39.000Z,8.00
2019-05-01T03:21:38.991Z,8.00
2019-05-01T03:22:38.990Z,12.00
2019-05-01T03:23:38.983Z,12.00
2019-05-01T03:24:38.978Z,12.00
2019-05-01T03:25:38.975Z,12.00
2019-05-01T03:26:38.970Z,12.00
2019-05-01T03:27:38.966Z,16.00
2019-05-01T03:28:38.959Z,16.00
2019-05-01T03:29:38.956Z,16.00
2019-05-01T03:30:38.965Z,16.00
2019-05-01T03:31:38.949Z,16.00
2019-05-01T03:32:38.942Z,16.00
2019-05-01T03:33:38.958Z,20.00
2019-05-01T03:34:38.936Z,16.00
2019-05-01T03:35:38.934Z,20.00
2019-05-01T03:36:38.925Z,24.00
2019-05-01T03:37:38.924Z,28.00
2019-05-01T03:38:38.918Z,28.00
2019-05-01T03:39:38.912Z,24.00
2019-05-01T03:40:38.927Z,32.00
2019-05-01T03:41:38.908Z,40.00
2019-05-01T03:42:38.901Z,44.00
2019-05-01T03:43:38.893Z,56.00
2019-05-01T03:44:38.891Z,68.00
2019-05-01T03:45:38.884Z,84.00
2019-05-01T03:46:38.880Z,92.00
2019-05-01T03:47:38.877Z,100.00
2019-05-01T03:48:38.869Z,104.00
2019-05-01T03:49:38.867Z,104.00
2019-05-01T03:50:38.861Z,108.00
2019-05-01T03:51:38.859Z,112.00
2019-05-01T03:52:38.858Z,116.00
2019-05-01T03:53:38.850Z,124.00
2019-05-01T03:54:38.845Z,124.00
2019-05-01T03:55:38.839Z,128.00
2019-05-01T03:56:38.837Z,116.00
2019-05-01T03:57:38.829Z,108.00
2019-05-01T03:58:38.823Z,108.00
2019-05-01T03:59:38.819Z,112.00
2019-05-01T04:00:38.817Z,124.00
2019-05-01T04:01:38.811Z,144.00
2019-05-01T04:02:38.806Z,156.00
2019-05-01T04:03:38.814Z,180.00
2019-05-01T04:04:38.800Z,208.00
2019-05-01T04:05:38.793Z,228.00
2019-05-01T04:06:38.788Z,252.00
2019-05-01T04:07:38.784Z,276.00
2019-05-01T04:08:38.779Z,296.00
2019-05-01T04:09:38.775Z,312.00
2019-05-01T04:10:38.779Z,340.00
2019-05-01T04:11:38.767Z,356.00
2019-05-01T04:12:38.764Z,368.00
2019-05-01T04:13:38.755Z,376.00
2019-05-01T04:14:39.471Z,380.00
2019-05-01T04:15:38.745Z,384.00
2019-05-01T04:16:38.744Z,400.00
2019-05-01T04:17:38.741Z,424.00
2019-05-01T04:18:38.733Z,460.00
2019-05-01T04:19:38.727Z,488.00
2019-05-01T04:20:38.723Z,508.00
2019-05-01T04:21:38.718Z,524.00
2019-05-01T04:22:38.711Z,524.00
2019-05-01T04:23:38.712Z,520.00
2019-05-01T04:24:38.747Z,528.00
2019-05-01T04:25:38.699Z,540.00
2019-05-01T04:26:38.701Z,548.00
2019-05-01T04:27:38.695Z,576.00
2019-05-01T04:28:38.697Z,608.00
2019-05-01T04:29:38.677Z,644.00
2019-05-01T04:30:38.672Z,688.00
2019-05-01T04:31:38.675Z,736.00
2019-05-01T04:32:52.266Z,776.00
2019-05-01T04:33:38.661Z,816.00
2019-05-01T04:34:38.652Z,864.00
2019-05-01T04:35:38.650Z,912.00
2019-05-01T04:36:38.643Z,948.00
2019-05-01T04:37:38.649Z,980.00
2019-05-01T04:38:38.633Z,1004.00
2019-05-01T04:39:38.636Z,1036.00
2019-05-01T04:40:38.624Z,1084.00
2019-05-01T04:41:38.617Z,1144.00
2019-05-01T04:42:38.700Z,1216.00
2019-05-01T04:43:38.612Z,1292.00
2019-05-01T04:44:38.602Z,1376.00
2019-05-01T04:45:38.597Z,1460.00
2019-05-01T04:46:38.593Z,1548.00
2019-05-01T04:47:38.590Z,1628.00
2019-05-01T04:48:38.583Z,1684.00
2019-05-01T04:49:38.579Z,1716.00
2019-05-01T04:50:38.574Z,1752.00
2019-05-01T04:51:38.570Z,1732.00
2019-05-01T04:52:38.566Z,1728.00
2019-05-01T04:53:38.560Z,1788.00
2019-05-01T04:54:38.550Z,1836.00
2019-05-01T04:55:38.549Z,2060.00
2019-05-01T04:56:38.543Z,2344.00
2019-05-01T04:57:38.539Z,2364.00
2019-05-01T04:58:38.530Z,2588.00
2019-05-01T04:59:38.524Z,2944.00
2019-05-01T05:00:38.518Z,3260.00
2019-05-01T05:01:38.513Z,2996.00
2019-05-01T05:02:38.511Z,3312.00
2019-05-01T05:03:38.503Z,3484.00
2019-05-01T05:04:38.498Z,3296.00
2019-05-01T05:05:38.492Z,3888.00
2019-05-01T05:06:38.491Z,3672.00
2019-05-01T05:07:38.486Z,3576.00
2019-05-01T05:08:38.480Z,3556.00
2019-05-01T05:09:38.475Z,3376.00
2019-05-01T05:10:38.472Z,3204.00
2019-05-01T05:11:38.466Z,3316.00
2019-05-01T05:12:38.459Z,3480.00
2019-05-01T05:13:38.457Z,3736.00
2019-05-01T05:14:38.452Z,3840.00
2019-05-01T05:15:38.450Z,3332.00
2019-05-01T05:16:38.443Z,3248.00
2019-05-01T05:17:38.438Z,3208.00
2019-05-01T05:18:38.433Z,3244.00
2019-05-01T05:19:38.431Z,3292.00
2019-05-01T05:20:38.423Z,3492.00
2019-05-01T05:21:38.424Z,3652.00
2019-05-01T05:22:38.414Z,3912.00
2019-05-01T05:23:38.412Z,4264.00
2019-05-01T05:24:38.407Z,4712.00
2019-05-01T05:25:38.400Z,4548.00
2019-05-01T05:26:38.400Z,4436.00
2019-05-01T05:27:38.393Z,4480.00
2019-05-01T05:28:38.389Z,4364.00
2019-05-01T05:29:38.382Z,4280.00
2019-05-01T05:30:38.379Z,4336.00
2019-05-01T05:31:38.376Z,4452.00
2019-05-01T05:32:38.369Z,4760.00
2019-05-01T05:33:38.367Z,5104.00
2019-05-01T05:34:38.363Z,5456.00
2019-05-01T05:35:38.358Z,6064.00
2019-05-01T05:36:38.353Z,6400.00
2019-05-01T05:37:38.348Z,6844.00
2019-05-01T05:38:38.344Z,7328.00
2019-05-01T05:39:38.340Z,7092.00
2019-05-01T05:40:38.337Z,8164.00
2019-05-01T05:41:38.333Z,8244.00
2019-05-01T05:42:38.327Z,8180.00
2019-05-01T05:43:38.325Z,6404.00
2019-05-01T05:44:38.316Z,5832.00
2019-05-01T05:45:38.318Z,5620.00
2019-05-01T05:46:38.357Z,5780.00
2019-05-01T05:47:38.308Z,6084.00
2019-05-01T05:48:38.304Z,6060.00
2019-05-01T05:49:38.298Z,5884.00
2019-05-01T05:50:38.296Z,5312.00
2019-05-01T05:51:38.290Z,5536.00
2019-05-01T05:52:38.287Z,4488.00
2019-05-01T05:53:38.283Z,4092.00
2019-05-01T05:54:38.277Z,3716.00
2019-05-01T05:55:38.282Z,3496.00
2019-05-01T05:56:38.272Z,3828.00
2019-05-01T05:57:38.268Z,7508.00
2019-05-01T05:58:38.265Z,8608.00
2019-05-01T05:59:38.270Z,5920.00
2019-05-01T06:00:38.253Z,6908.00
2019-05-01T06:01:38.250Z,6964.00
2019-05-01T06:02:38.245Z,7928.00
2019-05-01T06:03:38.243Z,7744.00
2019-05-01T06:04:38.238Z,6768.00
2019-05-01T06:05:38.233Z,6076.00
2019-05-01T06:06:38.229Z,5964.00
2019-05-01T06:07:38.227Z,9552.00
2019-05-01T06:08:38.221Z,9596.00
2019-05-01T06:09:38.215Z,7324.00
2019-05-01T06:10:38.212Z,7752.00
2019-05-01T06:11:38.208Z,10028.00
2019-05-01T06:12:41.746Z,9336.00
2019-05-01T06:13:38.200Z,10564.00
2019-05-01T06:14:38.196Z,7600.00
2019-05-01T06:15:41.306Z,6904.00
2019-05-01T06:16:40.315Z,9376.00
2019-05-01T06:17:38.180Z,7356.00
2019-05-01T06:18:39.330Z,4332.00
2019-05-01T06:19:38.179Z,4572.00
2019-05-01T06:20:38.171Z,5208.00
2019-05-01T06:21:38.167Z,5720.00
2019-05-01T06:22:40.825Z,6044.00
2019-05-01T06:23:38.161Z,6440.00
2019-05-01T06:24:40.512Z,7388.00
2019-05-01T06:25:38.151Z,9080.00
2019-05-01T06:26:39.442Z,8360.00
2019-05-01T06:27:38.143Z,6704.00
2019-05-01T06:28:38.141Z,7228.00
2019-05-01T06:29:38.136Z,14496.00
2019-05-01T06:30:42.061Z,11564.00
2019-05-01T06:31:38.130Z,7408.00
2019-05-01T06:32:39.909Z,6412.00
2019-05-01T06:33:44.069Z,6460.00
2019-05-01T06:34:38.114Z,7240.00
2019-05-01T06:35:39.318Z,8664.00
2019-05-01T06:36:38.107Z,10680.00
2019-05-01T06:37:38.113Z,10236.00
2019-05-01T06:38:38.101Z,7624.00
2019-05-01T06:39:38.100Z,7032.00
2019-05-01T06:40:38.096Z,5380.00
2019-05-01T06:41:42.442Z,4368.00
2019-05-01T06:42:38.086Z,3548.00
2019-05-01T06:43:38.082Z,3124.00
2019-05-01T06:44:39.247Z,2936.00
2019-05-01T06:45:38.078Z,2848.00
2019-05-01T06:46:38.073Z,2860.00
2019-05-01T06:47:42.586Z,2908.00
2019-05-01T06:48:38.062Z,2864.00
2019-05-01T06:49:38.061Z,2896.00
2019-05-01T06:50:41.613Z,2860.00
2019-05-01T06:51:38.057Z,2808.00
2019-05-01T06:52:38.049Z,2812.00
2019-05-01T06:53:39.886Z,2732.00
2019-05-01T06:54:38.042Z,2784.00
2019-05-01T06:55:38.038Z,2868.00
2019-05-01T06:56:38.031Z,2968.00
2019-05-01T06:57:43.006Z,3308.00
2019-05-01T06:58:38.029Z,3608.00
2019-05-01T06:59:38.018Z,3932.00
2019-05-01T07:00:39.227Z,4452.00
2019-05-01T07:01:38.013Z,4816.00
2019-05-01T07:02:38.008Z,5540.00
2019-05-01T07:03:40.735Z,6128.00
2019-05-01T07:04:39.577Z,6808.00
2019-05-01T07:05:37.997Z,6472.00
2019-05-01T07:06:38.017Z,6072.00
2019-05-01T07:07:37.990Z,6152.00
2019-05-01T07:08:39.573Z,6880.00
2019-05-01T07:09:37.979Z,6908.00
2019-05-01T07:10:44.041Z,6740.00
2019-05-01T07:11:37.999Z,7540.00
2019-05-01T07:12:37.967Z,8428.00
2019-05-01T07:13:40.172Z,9036.00
2019-05-01T07:14:37.955Z,9124.00
2019-05-01T07:15:37.956Z,8344.00
2019-05-01T07:16:39.275Z,8168.00
2019-05-01T07:17:37.950Z,8656.00
2019-05-01T07:18:37.938Z,8472.00
2019-05-01T07:19:40.259Z,7756.00
2019-05-01T07:20:37.929Z,7864.00
2019-05-01T07:21:37.927Z,7644.00
2019-05-01T07:22:42.196Z,7524.00
2019-05-01T07:23:37.926Z,7352.00
2019-05-01T07:24:37.913Z,7972.00
2019-05-01T07:25:39.484Z,8076.00
2019-05-01T07:26:37.907Z,7752.00
2019-05-01T07:27:37.902Z,8436.00
2019-05-01T07:28:37.897Z,9160.00
2019-05-01T07:29:39.844Z,8676.00
2019-05-01T07:30:37.890Z,9788.00
2019-05-01T07:31:37.886Z,12832.00
2019-05-01T07:32:41.201Z,30944.00
2019-05-01T07:33:37.876Z,28832.00
2019-05-01T07:34:37.875Z,27136.00
2019-05-01T07:35:37.993Z,30688.00
2019-05-01T07:36:37.869Z,19776.00
2019-05-01T07:37:37.861Z,7612.00
2019-05-01T07:38:39.060Z,6176.00
2019-05-01T07:39:37.855Z,5672.00
2019-05-01T07:40:37.861Z,5732.00
2019-05-01T07:41:38.995Z,5620.00
2019-05-01T07:42:37.845Z,5668.00
2019-05-01T07:43:37.842Z,7228.00
2019-05-01T07:44:37.838Z,9552.00
2019-05-01T07:45:39.063Z,11832.00
2019-05-01T07:46:37.834Z,16288.00
2019-05-01T07:47:37.829Z,25856.00
2019-05-01T07:48:41.419Z,11900.00
2019-05-01T07:49:37.823Z,11764.00
2019-05-01T07:50:37.819Z,22080.00
2019-05-01T07:51:42.277Z,9372.00
2019-05-01T07:52:37.811Z,9940.00
2019-05-01T07:53:37.807Z,15584.00
2019-05-01T07:54:42.227Z,11304.00
2019-05-01T07:55:37.802Z,10196.00
2019-05-01T07:56:37.816Z,9032.00
2019-05-01T07:57:39.617Z,11152.00
2019-05-01T07:58:37.801Z,10560.00
2019-05-01T07:59:37.789Z,9588.00
2019-05-01T08:00:41.528Z,6704.00
2019-05-01T08:01:37.784Z,7452.00
2019-05-01T08:02:37.782Z,6212.00
2019-05-01T08:03:42.218Z,5456.00
2019-05-01T08:04:37.795Z,5848.00
2019-05-01T08:05:40.916Z,5728.00
2019-05-01T08:06:37.769Z,5964.00
2019-05-01T08:07:37.762Z,6004.00
2019-05-01T08:08:39.665Z,5312.00
2019-05-01T08:09:37.755Z,5588.00
2019-05-01T08:10:37.753Z,6148.00
2019-05-01T08:11:39.041Z,6768.00
2019-05-01T08:12:37.747Z,7268.00
2019-05-01T08:13:37.743Z,7484.00
2019-05-01T08:14:37.740Z,10440.00
2019-05-01T08:15:37.738Z,17152.00
2019-05-01T08:16:42.073Z,12304.00
2019-05-01T08:17:37.728Z,12816.00
2019-05-01T08:18:37.726Z,19104.00
2019-05-01T08:19:39.539Z,46016.00
2019-05-01T08:20:37.719Z,23104.00
2019-05-01T08:21:37.715Z,12676.00
2019-05-01T08:22:39.019Z,23968.00
2019-05-01T08:23:37.707Z,13616.00
2019-05-01T08:24:37.703Z,17120.00
2019-05-01T08:25:37.701Z,18528.00
2019-05-01T08:26:39.652Z,38368.00
2019-05-01T08:27:37.696Z,30752.00
2019-05-01T08:28:37.696Z,45984.00
2019-05-01T08:29:41.974Z,27104.00
2019-05-01T08:30:37.712Z,39808.00
2019-05-01T08:31:37.714Z,26176.00
2019-05-01T08:32:39.263Z,22048.00
2019-05-01T08:33:37.682Z,42912.00
2019-05-01T08:34:48.414Z,29920.00
2019-05-01T08:35:37.742Z,32928.00
2019-05-01T08:36:37.682Z,11996.00
2019-05-01T08:37:37.679Z,12440.00
2019-05-01T08:38:37.675Z,13696.00
2019-05-01T08:39:39.811Z,9560.00
2019-05-01T08:40:37.675Z,11896.00
2019-05-01T08:41:37.850Z,11904.00
2019-05-01T08:42:42.180Z,12284.00
2019-05-01T08:43:37.671Z,11920.00
2019-05-01T08:44:37.669Z,13224.00
2019-05-01T08:45:40.786Z,17440.00
2019-05-01T08:46:37.668Z,16352.00
2019-05-01T08:47:37.664Z,15040.00
2019-05-01T08:48:37.797Z,12204.00
2019-05-01T08:49:42.241Z,14328.00
2019-05-01T08:50:37.662Z,14308.00
2019-05-01T08:51:37.660Z,15560.00
2019-05-01T08:52:37.658Z,17056.00
2019-05-01T08:53:37.657Z,16320.00
2019-05-01T08:54:37.656Z,13040.00
2019-05-01T08:55:39.940Z,9580.00
2019-05-01T08:56:37.659Z,11684.00
2019-05-01T08:57:39.581Z,11872.00
2019-05-01T08:58:37.651Z,10960.00
2019-05-01T08:59:37.651Z,11788.00
2019-05-01T09:00:41.051Z,11944.00
2019-05-01T09:01:37.651Z,13192.00
2019-05-01T09:02:41.475Z,13292.00
2019-05-01T09:03:37.645Z,13200.00
2019-05-01T09:04:37.642Z,13476.00
2019-05-01T09:05:37.647Z,14516.00
2019-05-01T09:06:39.413Z,13620.00
2019-05-01T09:07:37.700Z,12396.00
2019-05-01T09:08:37.639Z,11884.00
2019-05-01T09:09:39.817Z,11308.00
2019-05-01T09:10:37.632Z,10976.00
2019-05-01T09:11:37.636Z,11084.00
2019-05-01T09:12:37.631Z,11148.00
2019-05-01T09:13:37.632Z,11156.00
2019-05-01T09:14:37.629Z,11036.00
2019-05-01T09:15:37.626Z,11896.00
2019-05-01T09:16:37.625Z,11696.00
2019-05-01T09:17:37.623Z,11508.00
2019-05-01T09:18:37.621Z,11204.00
2019-05-01T09:19:37.626Z,10936.00
2019-05-01T09:20:37.615Z,11688.00
2019-05-01T09:21:38.263Z,11940.00
2019-05-01T09:22:37.612Z,12276.00
2019-05-01T09:23:37.615Z,12500.00
2019-05-01T09:24:37.610Z,11200.00
2019-05-01T09:25:37.605Z,11320.00
2019-05-01T09:26:37.607Z,11424.00
2019-05-01T09:27:37.601Z,11204.00
2019-05-01T09:28:39.713Z,11244.00
2019-05-01T09:29:37.598Z,10872.00
2019-05-01T09:30:37.600Z,10776.00
2019-05-01T09:31:37.596Z,10832.00
2019-05-01T09:32:37.593Z,11088.00
2019-05-01T09:33:37.589Z,11456.00
2019-05-01T09:34:37.588Z,12208.00
2019-05-01T09:35:43.565Z,12080.00
2019-05-01T09:36:37.583Z,11680.00
2019-05-01T09:37:37.584Z,10848.00
2019-05-01T09:38:37.580Z,11344.00
2019-05-01T09:39:37.582Z,11556.00
2019-05-01T09:40:37.578Z,12096.00
2019-05-01T09:41:38.612Z,11636.00
2019-05-01T09:42:37.573Z,12228.00
2019-05-01T09:43:37.567Z,11308.00
2019-05-01T09:44:37.567Z,10576.00
2019-05-01T09:45:37.606Z,9676.00
2019-05-01T09:46:37.564Z,9488.00
2019-05-01T09:47:37.560Z,10076.00
2019-05-01T09:48:37.559Z,9260.00
2019-05-01T09:49:37.558Z,8524.00
2019-05-01T09:50:37.556Z,9048.00
2019-05-01T09:51:37.555Z,8468.00
2019-05-01T09:52:37.552Z,8212.00
2019-05-01T09:53:37.554Z,8660.00
2019-05-01T09:54:37.549Z,8684.00
2019-05-01T09:55:37.546Z,8472.00
2019-05-01T09:56:38.389Z,8032.00
2019-05-01T09:57:41.267Z,7924.00
2019-05-01T09:58:37.541Z,7868.00
2019-05-01T09:59:37.538Z,7904.00
2019-05-01T10:00:37.537Z,8164.00
2019-05-01T10:01:37.535Z,8136.00
2019-05-01T10:02:37.708Z,7208.00
2019-05-01T10:03:37.530Z,7240.00
2019-05-01T10:04:37.527Z,7016.00
2019-05-01T10:05:38.097Z,7216.00
2019-05-01T10:06:37.525Z,7304.00
2019-05-01T10:07:37.520Z,7224.00
2019-05-01T10:08:39.874Z,7036.00
2019-05-01T10:09:37.517Z,6712.00
2019-05-01T10:10:37.519Z,6448.00
2019-05-01T10:11:40.726Z,7848.00
2019-05-01T10:12:37.509Z,7992.00
2019-05-01T10:13:37.508Z,7388.00
2019-05-01T10:14:37.572Z,8404.00
2019-05-01T10:15:37.505Z,8448.00
2019-05-01T10:16:37.498Z,8236.00
2019-05-01T10:17:37.501Z,7988.00
2019-05-01T10:18:37.509Z,7324.00
2019-05-01T10:19:37.538Z,7272.00
2019-05-01T10:20:37.491Z,7572.00
2019-05-01T10:21:37.490Z,7412.00
2019-05-01T10:22:38.649Z,7012.00
2019-05-01T10:23:37.484Z,7200.00
2019-05-01T10:24:39.288Z,6544.00
2019-05-01T10:25:37.502Z,6620.00
2019-05-01T10:26:37.477Z,6768.00
2019-05-01T10:27:37.506Z,7204.00
2019-05-01T10:28:37.473Z,7024.00
2019-05-01T10:29:37.475Z,7108.00
2019-05-01T10:30:37.598Z,6900.00
2019-05-01T10:31:37.467Z,6508.00
2019-05-01T10:32:37.462Z,6928.00
2019-05-01T10:33:37.463Z,5824.00
2019-05-01T10:34:38.699Z,5452.00
2019-05-01T10:35:42.946Z,5416.00
2019-05-01T10:36:37.455Z,6844.00
2019-05-01T10:37:37.455Z,8160.00
2019-05-01T10:38:39.867Z,7332.00
2019-05-01T10:39:37.451Z,6480.00
2019-05-01T10:40:37.449Z,6668.00
2019-05-01T10:41:41.227Z,6740.00
2019-05-01T10:42:37.441Z,7236.00
2019-05-01T10:43:37.440Z,7432.00
2019-05-01T10:44:37.437Z,7204.00
2019-05-01T10:45:37.437Z,7100.00
2019-05-01T10:46:37.433Z,6124.00
2019-05-01T10:47:37.438Z,6544.00
2019-05-01T10:48:37.427Z,6544.00
2019-05-01T10:49:37.427Z,6724.00
2019-05-01T10:50:37.422Z,7336.00
2019-05-01T10:51:37.421Z,7228.00
2019-05-01T10:52:37.420Z,6804.00
2019-05-01T10:53:37.418Z,6540.00
2019-05-01T10:54:37.414Z,6204.00
2019-05-01T10:55:37.413Z,6220.00
2019-05-01T10:56:37.410Z,6788.00
2019-05-01T10:57:40.634Z,7156.00
2019-05-01T10:58:37.406Z,6880.00
2019-05-01T10:59:37.407Z,7012.00
2019-05-01T11:00:37.403Z,7176.00
2019-05-01T11:01:37.400Z,7196.00
2019-05-01T11:02:37.397Z,7376.00
2019-05-01T11:03:37.396Z,7236.00
2019-05-01T11:04:37.393Z,6964.00
2019-05-01T11:05:37.392Z,6952.00
2019-05-01T11:06:37.427Z,6772.00
2019-05-01T11:07:37.394Z,6480.00
2019-05-01T11:08:37.390Z,6232.00
2019-05-01T11:09:37.386Z,6076.00
2019-05-01T11:10:37.381Z,6132.00
2019-05-01T11:11:37.378Z,6520.00
2019-05-01T11:12:37.377Z,6480.00
2019-05-01T11:13:37.375Z,6584.00
2019-05-01T11:14:37.372Z,6864.00
2019-05-01T11:15:37.374Z,6896.00
2019-05-01T11:16:37.371Z,6812.00
2019-05-01T11:17:37.367Z,6848.00
2019-05-01T11:18:37.371Z,6636.00
2019-05-01T11:19:37.372Z,6464.00
2019-05-01T11:20:37.366Z,6068.00
2019-05-01T11:21:37.360Z,5692.00
2019-05-01T11:22:37.356Z,5676.00
2019-05-01T11:23:37.356Z,5584.00
2019-05-01T11:24:37.355Z,5640.00
2019-05-01T11:25:37.353Z,5292.00
2019-05-01T11:26:37.351Z,4948.00
2019-05-01T11:27:37.349Z,4968.00
2019-05-01T11:28:37.348Z,5052.00
2019-05-01T11:29:37.344Z,5276.00
2019-05-01T11:30:37.341Z,5452.00
2019-05-01T11:31:37.340Z,5476.00
2019-05-01T11:32:37.335Z,5528.00
2019-05-01T11:33:37.337Z,5428.00
2019-05-01T11:34:37.336Z,5492.00
2019-05-01T11:35:37.334Z,5448.00
2019-05-01T11:36:37.332Z,5772.00
2019-05-01T11:37:37.327Z,5624.00
2019-05-01T11:38:37.325Z,5540.00
2019-05-01T11:39:40.869Z,5460.00
2019-05-01T11:40:37.321Z,5408.00
2019-05-01T11:41:37.320Z,5452.00
2019-05-01T11:42:37.317Z,5324.00
2019-05-01T11:43:37.315Z,5476.00
2019-05-01T11:44:37.316Z,5768.00
2019-05-01T11:45:37.312Z,6140.00
2019-05-01T11:46:37.307Z,6596.00
2019-05-01T11:47:37.307Z,6596.00
2019-05-01T11:48:37.304Z,7156.00
2019-05-01T11:49:37.300Z,7496.00
2019-05-01T11:50:37.305Z,7364.00
2019-05-01T11:51:37.297Z,7240.00
2019-05-01T11:52:37.296Z,7492.00
2019-05-01T11:53:37.296Z,7256.00
2019-05-01T11:54:37.292Z,7700.00
2019-05-01T11:55:37.290Z,7944.00
2019-05-01T11:56:37.287Z,8572.00
2019-05-01T11:57:37.287Z,8480.00
2019-05-01T11:58:37.286Z,8404.00
2019-05-01T11:59:37.284Z,8332.00
2019-05-01T12:00:37.280Z,8500.00
2019-05-01T12:01:37.278Z,8524.00
2019-05-01T12:02:37.274Z,8692.00
2019-05-01T12:03:37.274Z,9216.00
2019-05-01T12:04:37.275Z,8524.00
2019-05-01T12:05:37.272Z,8264.00
2019-05-01T12:06:37.269Z,8144.00
2019-05-01T12:07:37.267Z,8004.00
2019-05-01T12:08:37.270Z,7920.00
2019-05-01T12:09:37.265Z,8028.00
2019-05-01T12:10:37.260Z,7964.00
2019-05-01T12:11:37.262Z,8316.00
2019-05-01T12:12:37.258Z,7996.00
2019-05-01T12:13:43.524Z,7840.00
2019-05-01T12:14:37.260Z,7688.00
2019-05-01T12:15:37.256Z,7028.00
2019-05-01T12:16:37.251Z,6528.00
2019-05-01T12:17:38.903Z,6300.00
2019-05-01T12:18:37.248Z,6192.00
2019-05-01T12:19:37.247Z,5976.00
2019-05-01T12:20:37.246Z,5928.00
2019-05-01T12:21:37.243Z,6080.00
2019-05-01T12:22:37.244Z,6012.00
2019-05-01T12:23:37.239Z,6096.00